Time;durP1;ratioP1;P1;durP2;ratioP2;P2;SDS_P1;SDS_P2;PMS_P1;PMS_P2;Temp;Humidity;BMP_temperature;BMP_pressure;BME280_temperature;BME280_humidity;BME280_pressure;Samples;Min_cycle;Max_cycle;Signal;HPM_P1;HPM_P2
2021/07/29 00:00:56;;;;;;;1.60;1.50;;;26.50;49.60;;;-147.20;100.00;58430.41;5114075;28;20040;-54
2021/07/29 00:03:22;;;;;;;2.83;1.80;;;26.50;49.70;;;-147.20;100.00;58430.41;5112921;28;20050;-51
2021/07/29 00:05:49;;;;;;;1.30;1.20;;;26.50;49.70;;;-147.20;100.00;58430.41;5113987;28;20403;-49
2021/07/29 00:08:19;;;;;;;1.42;1.33;;;26.50;49.80;;;-147.20;100.00;58430.41;5114152;28;20047;-48
2021/07/29 00:10:46;;;;;;;1.60;1.50;;;26.50;49.80;;;-147.20;100.00;58430.41;5113696;28;20047;-47
2021/07/29 00:13:11;;;;;;;1.73;1.63;;;26.50;49.80;;;-147.20;100.00;58430.41;5113775;28;20050;-48
2021/07/29 00:15:37;;;;;;;1.45;1.35;;;26.50;49.80;;;-147.20;100.00;58430.41;5114109;28;20392;-51
2021/07/29 00:20:29;;;;;;;1.67;1.58;;;26.50;49.90;;;-147.20;100.00;58430.41;5113780;28;20066;-52
2021/07/29 00:23:01;;;;;;;1.60;1.50;;;26.40;49.80;;;-147.20;100.00;58430.41;5113563;28;20043;-51
2021/07/29 00:25:28;;;;;;;1.50;1.40;;;26.40;49.80;;;-147.20;100.00;58430.41;5114023;28;20043;-55
2021/07/29 00:27:58;;;;;;;1.73;1.63;;;26.40;49.90;;;-147.20;100.00;58430.41;5113576;28;20079;-54
2021/07/29 00:30:26;;;;;;;1.70;1.60;;;26.40;49.90;;;-147.20;100.00;58430.41;5095237;28;20093;-53
2021/07/29 00:32:53;;;;;;;1.88;1.33;;;26.40;50.00;;;-147.20;100.00;58430.41;5113819;28;20066;-54
2021/07/29 00:35:19;;;;;;;1.40;1.30;;;26.40;50.00;;;-147.20;100.00;58430.41;5113995;28;20127;-54
2021/07/29 00:37:49;;;;;;;1.35;1.27;;;26.40;50.00;;;-147.20;100.00;58430.41;5113275;28;20052;-49
2021/07/29 00:40:16;;;;;;;1.50;1.40;;;26.40;50.00;;;-147.20;100.00;58430.41;5113823;28;20047;-48
2021/07/29 00:42:42;;;;;;;1.70;1.50;;;26.40;50.00;;;-147.20;100.00;58430.41;5094914;28;20436;-52
2021/07/29 00:45:08;;;;;;;1.45;1.35;;;26.40;50.10;;;-147.20;100.00;58430.41;5113838;28;20054;-52
2021/07/29 00:47:39;;;;;;;1.63;1.52;;;26.40;50.10;;;-147.20;100.00;58430.41;5113326;28;20082;-53
2021/07/29 00:50:06;;;;;;;;;;;26.30;50.00;;;-147.20;100.00;58430.41;5113731;28;20525;-52
2021/07/29 00:52:32;;;;;;;1.63;1.52;;;26.30;50.00;;;-147.20;100.00;58430.41;5093350;28;20371;-51
2021/07/29 00:54:58;;;;;;;1.40;1.30;;;26.30;50.00;;;-147.20;100.00;58430.41;5113178;28;20104;-52
2021/07/29 00:57:24;;;;;;;1.80;1.70;;;26.30;50.10;;;-147.20;100.00;58430.41;5113598;28;20083;-54
2021/07/29 00:59:50;;;;;;;1.40;1.30;;;26.30;50.10;;;-147.20;100.00;58430.41;5095004;28;20046;-49
2021/07/29 01:02:16;;;;;;;1.52;1.42;;;26.30;50.10;;;-147.20;100.00;58430.41;5093187;28;20040;-54
2021/07/29 01:04:47;;;;;;;1.63;1.52;;;26.30;50.10;;;-147.20;100.00;58430.41;5113122;28;20116;-54
2021/07/29 01:07:12;;;;;;;1.55;1.45;;;26.30;50.10;;;-147.20;100.00;58430.41;5113044;28;20087;-48
2021/07/29 01:09:41;;;;;;;1.60;1.50;;;26.30;50.20;;;-147.20;100.00;58430.41;5113002;28;20086;-52
2021/07/29 01:12:08;;;;;;;2.70;1.60;;;26.30;50.20;;;-147.20;100.00;58430.41;5113323;28;20392;-55
2021/07/29 01:14:34;;;;;;;1.38;1.27;;;26.30;50.20;;;-147.20;100.00;58430.41;5112970;28;20055;-54
2021/07/29 01:16:59;;;;;;;1.48;1.38;;;26.20;50.20;;;-147.20;100.00;58430.41;5112922;28;20403;-50
2021/07/29 01:19:27;;;;;;;1.50;1.40;;;26.30;50.30;;;-147.20;100.00;58430.41;5112521;28;20077;-53
2021/07/29 01:21:55;;;;;;;1.60;1.50;;;26.20;50.20;;;-147.20;100.00;58430.41;5112950;28;20039;-54
2021/07/29 01:24:26;;;;;;;1.30;1.20;;;26.20;50.30;;;-147.20;100.00;58430.41;5112854;28;20494;-53
2021/07/29 01:26:52;;;;;;;;;;;26.20;50.20;;;-147.20;100.00;58430.41;5113557;28;20056;-53
2021/07/29 01:29:19;;;;;;;1.45;1.35;;;26.20;50.30;;;-147.20;100.00;58430.41;5112983;28;19915;-54
2021/07/29 01:31:45;;;;;;;1.52;1.42;;;26.20;50.30;;;-147.20;100.00;58430.41;5113350;28;20066;-52
2021/07/29 01:34:11;;;;;;;1.50;1.40;;;26.20;50.30;;;-147.20;100.00;58430.41;5112717;28;20048;-51
2021/07/29 01:36:37;;;;;;;1.48;1.38;;;26.20;50.30;;;-147.20;100.00;58430.41;5112675;28;20130;-50
2021/07/29 01:39:05;;;;;;;2.03;1.63;;;26.20;50.40;;;-147.20;100.00;58430.41;5112314;28;20104;-49
2021/07/29 01:41:31;;;;;;;1.38;1.27;;;26.20;50.40;;;-147.20;100.00;58430.41;5112634;28;20617;-52
2021/07/29 01:43:57;;;;;;;1.48;1.35;;;26.10;50.30;;;-147.20;100.00;58430.41;5113061;28;20043;-54
2021/07/29 01:46:23;;;;;;;1.42;1.33;;;26.10;50.30;;;-147.20;100.00;58430.41;5111722;28;20368;-54
2021/07/29 01:48:48;;;;;;;1.40;1.30;;;26.10;50.40;;;-147.20;100.00;58430.41;5112406;28;20457;-55
2021/07/29 01:51:14;;;;;;;1.50;1.40;;;26.10;50.40;;;-147.20;100.00;58430.41;5112206;28;20052;-54
2021/07/29 01:53:40;;;;;;;1.73;1.60;;;26.10;50.40;;;-147.20;100.00;58430.41;5113757;28;20105;-50
2021/07/29 01:56:09;;;;;;;1.50;1.40;;;26.10;50.40;;;-147.20;100.00;58430.41;5116079;28;20048;-47
2021/07/29 01:58:35;;;;;;;1.30;1.20;;;26.10;50.50;;;-147.20;100.00;58430.41;5115773;28;20052;-55
2021/07/29 02:01:01;;;;;;;2.03;1.70;;;26.10;50.50;;;-147.20;100.00;58430.41;5116030;28;20048;-53
2021/07/29 02:03:27;;;;;;;1.55;1.40;;;26.10;50.50;;;-147.20;100.00;58430.41;5116143;28;20040;-55
2021/07/29 02:05:52;;;;;;;1.45;1.35;;;26.00;50.50;;;-147.20;100.00;58430.41;5115922;28;20063;-52
2021/07/29 02:08:18;;;;;;;1.77;1.60;;;26.00;50.50;;;-147.20;100.00;58430.41;5116086;28;20052;-53
2021/07/29 02:10:44;;;;;;;1.67;1.58;;;26.00;50.50;;;-147.20;100.00;58430.41;5116394;28;20131;-51
2021/07/29 02:13:10;;;;;;;1.48;1.38;;;26.00;50.50;;;-147.20;100.00;58430.41;5115718;28;20092;-54
2021/07/29 02:15:35;;;;;;;1.40;1.27;;;26.00;50.50;;;-147.20;100.00;58430.41;5115684;28;20126;-54
2021/07/29 02:18:02;;;;;;;1.38;1.27;;;26.00;50.50;;;-147.20;100.00;58430.41;5115916;28;20044;-51
2021/07/29 02:20:29;;;;;;;1.67;1.58;;;26.00;50.50;;;-147.20;100.00;58430.41;5115392;28;20135;-53
2021/07/29 02:22:55;;;;;;;1.38;1.27;;;26.00;50.60;;;-147.20;100.00;58430.41;5115848;28;20046;-50
2021/07/29 02:25:21;;;;;;;1.27;1.17;;;26.00;50.60;;;-147.20;100.00;58430.41;5114508;28;20090;-53
2021/07/29 02:27:47;;;;;;;1.98;1.42;;;26.00;50.60;;;-147.20;100.00;58430.41;5115876;28;20052;-52
2021/07/29 02:30:13;;;;;;;1.60;1.50;;;26.00;50.60;;;-147.20;100.00;58430.41;5115378;28;20054;-52
2021/07/29 02:32:40;;;;;;;1.58;1.48;;;26.00;50.70;;;-147.20;100.00;58430.41;5116052;28;20036;-49
2021/07/29 02:35:06;;;;;;;1.48;1.38;;;26.00;50.70;;;-147.20;100.00;58430.41;5115429;28;20047;-53
2021/07/29 02:37:32;;;;;;;1.52;1.42;;;26.00;50.70;;;-147.20;100.00;58430.41;5115861;28;20510;-52
2021/07/29 02:39:58;;;;;;;1.30;1.20;;;26.00;50.70;;;-147.20;100.00;58430.41;5115111;28;20052;-53
2021/07/29 02:42:24;;;;;;;1.60;1.50;;;26.00;50.70;;;-147.20;100.00;58430.41;5115350;28;20505;-51
2021/07/29 02:44:50;;;;;;;1.60;1.50;;;26.00;50.70;;;-147.20;100.00;58430.41;5115556;28;20040;-52
2021/07/29 02:47:16;;;;;;;1.40;1.30;;;25.90;50.70;;;-147.20;100.00;58430.41;5115517;28;20050;-49
2021/07/29 02:49:41;;;;;;;1.40;1.30;;;25.90;50.70;;;-147.20;100.00;58430.41;5115067;28;20048;-46
2021/07/29 02:52:08;;;;;;;1.48;1.30;;;25.90;50.70;;;-147.20;100.00;58430.41;5115440;28;20040;-47
2021/07/29 02:54:34;;;;;;;1.50;1.40;;;25.90;50.70;;;-147.20;100.00;58430.41;5115134;28;20079;-52
2021/07/29 02:57:00;;;;;;;1.45;1.35;;;25.90;50.80;;;-147.20;100.00;58430.41;5115107;28;20055;-47
2021/07/29 02:59:26;;;;;;;1.50;1.40;;;25.90;51.30;;;-147.20;100.00;58430.41;5114888;28;20051;-51
2021/07/29 03:01:52;;;;;;;1.50;1.40;;;25.90;50.80;;;-147.20;100.00;58430.41;5096687;28;20058;-51
2021/07/29 03:04:20;;;;;;;1.45;1.38;;;25.90;50.80;;;-147.20;100.00;58430.41;5114625;28;20135;-52
2021/07/29 03:06:46;;;;;;;1.38;1.27;;;25.90;50.80;;;-147.20;100.00;58430.41;5096555;28;20052;-47
2021/07/29 03:09:13;;;;;;;1.40;1.30;;;25.90;50.80;;;-147.20;100.00;58430.41;5114821;28;20048;-53
2021/07/29 03:11:39;;;;;;;1.60;1.50;;;25.90;50.80;;;-147.20;100.00;58430.41;5114789;28;20043;-49
2021/07/29 03:14:05;;;;;;;1.30;1.20;;;25.90;50.80;;;-147.20;100.00;58430.41;5114828;28;20559;-47
2021/07/29 03:16:31;;;;;;;1.70;1.60;;;25.90;50.80;;;-147.20;100.00;58430.41;5114827;28;20131;-51
2021/07/29 03:18:57;;;;;;;1.42;1.33;;;25.80;50.80;;;-147.20;100.00;58430.41;5096214;28;20044;-51
2021/07/29 03:21:26;;;;;;;1.30;1.20;;;25.80;50.80;;;-147.20;100.00;58430.41;5113225;28;20480;-51
2021/07/29 03:23:52;;;;;;;1.40;1.30;;;25.80;50.90;;;-147.20;100.00;58430.41;5096593;28;20051;-49
2021/07/29 03:26:17;;;;;;;1.20;1.10;;;25.80;50.90;;;-147.20;100.00;58430.41;5114471;28;20059;-48
2021/07/29 03:28:43;;;;;;;1.60;1.50;;;25.80;50.90;;;-147.20;100.00;58430.41;5114486;28;20057;-51
2021/07/29 03:31:09;;;;;;;1.42;1.33;;;25.80;50.90;;;-147.20;100.00;58430.41;5114882;28;20058;-49
2021/07/29 03:33:37;;;;;;;1.58;1.48;;;25.80;50.90;;;-147.20;100.00;58430.41;5114403;28;20058;-54
2021/07/29 03:36:04;;;;;;;1.35;1.25;;;25.80;50.90;;;-147.20;100.00;58430.41;5114860;28;20087;-47
2021/07/29 03:38:30;;;;;;;1.33;1.23;;;25.80;50.90;;;-147.20;100.00;58430.41;5114258;28;20039;-47
2021/07/29 03:40:56;;;;;;;1.40;1.30;;;25.80;50.90;;;-147.20;100.00;58430.41;5114218;28;20069;-52
2021/07/29 03:43:22;;;;;;;1.60;1.50;;;25.80;50.90;;;-147.20;100.00;58430.41;5114809;28;20473;-50
2021/07/29 03:45:47;;;;;;;1.40;1.30;;;25.80;50.90;;;-147.20;100.00;58430.41;5114284;28;20482;-51
2021/07/29 03:48:13;;;;;;;1.58;1.45;;;25.80;50.90;;;-147.20;100.00;58430.41;5114138;28;20499;-46
2021/07/29 03:50:40;;;;;;;1.30;1.20;;;25.80;50.90;;;-147.20;100.00;58430.41;5114152;28;20051;-51
2021/07/29 03:53:06;;;;;;;1.35;1.25;;;25.80;50.90;;;-147.20;100.00;58430.41;5114194;28;20071;-50
2021/07/29 03:55:32;;;;;;;1.50;1.40;;;25.80;50.90;;;-147.20;100.00;58430.41;5114055;28;20075;-48
2021/07/29 03:58:01;;;;;;;1.40;1.30;;;25.80;50.90;;;-147.20;100.00;58430.41;5113975;28;20069;-46
2021/07/29 04:00:27;;;;;;;2.08;1.70;;;25.80;50.90;;;-147.20;100.00;58430.41;5113829;28;20055;-49
2021/07/29 04:02:53;;;;;;;1.50;1.30;;;25.80;50.90;;;-147.20;100.00;58430.41;5113986;28;20039;-48
2021/07/29 04:05:19;;;;;;;1.48;1.38;;;25.80;50.90;;;-147.20;100.00;58430.41;5095745;28;20097;-49
2021/07/29 04:07:44;;;;;;;1.70;1.60;;;25.80;50.90;;;-147.20;100.00;58430.41;5113940;28;20498;-49
2021/07/29 04:10:11;;;;;;;1.35;1.25;;;25.80;50.90;;;-147.20;100.00;58430.41;5113888;28;20054;-52
2021/07/29 04:12:37;;;;;;;1.77;1.40;;;25.80;50.90;;;-147.20;100.00;58430.41;5079246;28;20380;-50
2021/07/29 04:15:04;;;;;;;1.70;1.60;;;25.80;50.90;;;-147.20;100.00;58430.41;5095525;28;20092;-52
2021/07/29 04:17:30;;;;;;;1.65;1.55;;;25.80;50.90;;;-147.20;100.00;58430.41;5112897;28;20070;-49
2021/07/29 04:19:58;;;;;;;1.50;1.40;;;25.80;50.90;;;-147.20;100.00;58430.41;5113507;28;20054;-48
2021/07/29 04:22:24;;;;;;;1.42;1.33;;;25.80;50.90;;;-147.20;100.00;58430.41;5095361;28;20048;-46
2021/07/29 04:24:54;;;;;;;1.50;1.30;;;25.80;50.80;;;-147.20;100.00;58430.41;5113727;28;20050;-53
2021/07/29 04:27:20;;;;;;;1.35;1.25;;;25.80;50.90;;;-147.20;100.00;58430.41;5113892;28;20077;-48
2021/07/29 04:29:46;;;;;;;1.55;1.45;;;25.80;50.80;;;-147.20;100.00;58430.41;5113580;28;20051;-48
2021/07/29 04:32:11;;;;;;;1.27;1.17;;;25.80;50.80;;;-147.20;100.00;58430.41;5114162;28;20053;-49
2021/07/29 04:34:38;;;;;;;1.38;1.27;;;25.80;50.70;;;-147.20;100.00;58430.41;5113455;28;20089;-51
2021/07/29 04:37:04;;;;;;;1.50;1.40;;;25.80;50.80;;;-147.20;100.00;58430.41;5113715;28;20050;-49
2021/07/29 04:39:30;;;;;;;1.40;1.30;;;25.80;50.70;;;-147.20;100.00;58430.41;5113278;28;20398;-47
2021/07/29 04:41:56;;;;;;;1.60;1.50;;;25.80;50.70;;;-147.20;100.00;58430.41;5113895;28;20044;-51
2021/07/29 04:44:21;;;;;;;1.35;1.25;;;25.90;50.70;;;-147.20;100.00;58430.41;5113439;28;20065;-50
2021/07/29 04:46:47;;;;;;;1.67;1.58;;;25.90;50.70;;;-147.20;100.00;58430.41;5113631;28;20080;-50
2021/07/29 04:49:18;;;;;;;1.65;1.55;;;25.90;50.60;;;-147.20;100.00;58430.41;5113276;28;20072;-50
2021/07/29 04:51:44;;;;;;;1.88;1.40;;;25.90;50.50;;;-147.20;100.00;58430.41;5113560;28;20089;-46
2021/07/29 04:54:10;;;;;;;1.40;1.30;;;26.00;50.50;;;-147.20;100.00;58430.41;5113563;28;20422;-45
2021/07/29 04:56:36;;;;;;;1.30;1.20;;;26.00;50.50;;;-147.20;100.00;58430.41;5113182;28;20100;-52
2021/07/29 04:59:02;;;;;;;1.60;1.50;;;26.00;50.50;;;-147.20;100.00;58430.41;5095005;28;20051;-48
2021/07/29 05:01:31;;;;;;;1.13;1.00;;;25.90;50.50;;;-147.20;100.00;58430.41;5113225;28;20308;-47
2021/07/29 05:04:02;;;;;;;1.35;1.30;;;26.00;50.60;;;-147.20;100.00;58430.41;5113081;28;20052;-48
2021/07/29 05:06:31;;;;;;;;;;;26.00;50.50;;;-147.20;100.00;58430.41;5113529;28;20040;-50
2021/07/29 05:08:56;;;;;;;1.50;1.40;;;26.00;50.50;;;-147.20;100.00;58430.41;5112908;28;19915;-46
2021/07/29 05:11:22;;;;;;;1.45;1.35;;;26.00;50.40;;;-147.20;100.00;58430.41;5112765;28;20050;-47
2021/07/29 05:13:51;;;;;;;1.30;1.20;;;26.10;50.40;;;-147.20;100.00;58430.41;5113057;28;20052;-51
2021/07/29 05:16:17;;;;;;;1.30;1.20;;;26.10;50.30;;;-147.20;100.00;58430.41;5112630;28;20065;-48
2021/07/29 05:18:43;;;;;;;1.25;1.00;;;26.20;50.20;;;-147.20;100.00;58430.41;5112673;28;20537;-48
2021/07/29 05:21:09;;;;;;;1.20;1.10;;;26.30;50.00;;;-147.20;100.00;58430.41;5112767;28;20213;-48
2021/07/29 05:23:35;;;;;;;1.55;1.42;;;26.30;50.00;;;-147.20;100.00;58430.41;5112750;28;20043;-47
2021/07/29 05:26:01;;;;;;;1.42;1.33;;;26.40;49.90;;;-147.20;100.00;58430.41;5112734;28;20086;-50
2021/07/29 05:28:27;;;;;;;1.50;1.40;;;26.40;49.80;;;-147.20;100.00;58430.41;5115275;28;20134;-46
2021/07/29 05:30:54;;;;;;;1.40;1.30;;;26.40;49.70;;;-147.20;100.00;58430.41;5116245;28;20056;-47
2021/07/29 05:33:19;;;;;;;1.20;1.10;;;26.50;49.60;;;-147.20;100.00;58430.41;5116802;28;20069;-47
2021/07/29 05:35:45;;;;;;;1.40;1.27;;;26.50;49.50;;;-147.20;100.00;58430.41;5116600;28;20424;-47
2021/07/29 05:38:11;;;;;;;1.50;1.40;;;26.50;49.40;;;-147.20;100.00;58430.41;5097869;28;20039;-48
2021/07/29 05:40:38;;;;;;;1.30;1.20;;;26.50;49.30;;;-147.20;100.00;58430.41;5098020;28;20044;-45
2021/07/29 05:43:04;;;;;;;1.38;1.27;;;26.50;49.40;;;-147.20;100.00;58430.41;5116282;28;20488;-47
2021/07/29 05:45:29;;;;;;;1.52;1.25;;;26.60;49.30;;;-147.20;100.00;58430.41;5116214;28;20103;-46
2021/07/29 05:47:55;;;;;;;1.45;1.35;;;26.60;49.30;;;-147.20;100.00;58430.41;5116018;28;20100;-49
2021/07/29 05:50:21;;;;;;;1.13;1.08;;;26.70;49.40;;;-147.20;100.00;58430.41;5116162;28;20074;-46
2021/07/29 05:52:48;;;;;;;1.40;1.30;;;26.70;49.20;;;-147.20;100.00;58430.41;5116514;28;20444;-47
2021/07/29 05:55:14;;;;;;;2.22;1.38;;;26.70;49.10;;;-147.20;100.00;58430.41;5097795;28;20048;-47
2021/07/29 05:57:39;;;;;;;1.60;1.50;;;26.80;49.10;;;-147.20;100.00;58430.41;5115908;28;20467;-50
2021/07/29 06:00:07;;;;;;;1.30;1.20;;;26.80;49.00;;;-147.20;100.00;58430.41;5115929;28;20048;-47
2021/07/29 06:02:36;;;;;;;1.45;1.35;;;26.90;49.00;;;-147.20;100.00;58430.41;5114143;28;20130;-48
2021/07/29 06:05:03;;;;;;;1.38;1.27;;;26.90;48.80;;;-147.20;100.00;58430.41;5115940;28;20043;-46
2021/07/29 06:07:30;;;;;;;0.98;0.98;;;26.90;48.70;;;-147.20;100.00;58430.41;5095892;28;20102;-48
2021/07/29 06:09:55;;;;;;;1.45;1.35;;;27.00;48.70;;;-147.20;100.00;58430.41;5096120;28;20055;-48
2021/07/29 06:12:25;;;;;;;1.40;1.30;;;27.10;48.60;;;-147.20;100.00;58430.41;5115773;28;20403;-49
2021/07/29 06:15:01;;;;;;;1.30;1.20;;;27.20;48.50;;;-147.20;100.00;58430.41;5116328;28;20036;-45
2021/07/29 06:17:33;;;;;;;1.35;1.23;;;27.20;48.40;;;-147.20;100.00;58430.41;5116232;28;20126;-51
2021/07/29 06:20:05;;;;;;;1.58;1.30;;;27.30;48.30;;;-147.20;100.00;58430.41;5115900;28;20079;-51
2021/07/29 06:22:33;;;;;;;1.30;1.20;;;27.30;48.20;;;-147.20;100.00;58430.41;5115904;28;20048;-46
2021/07/29 06:25:05;;;;;;;1.25;1.15;;;27.30;48.10;;;-147.20;100.00;58430.41;5115367;28;20051;-49
2021/07/29 06:27:30;;;;;;;1.45;1.35;;;27.40;48.10;;;-147.20;100.00;58430.41;5115746;28;20044;-54
2021/07/29 06:29:56;;;;;;;1.08;1.08;;;27.40;48.00;;;-147.20;100.00;58430.41;5115495;28;20184;-49
2021/07/29 06:32:22;;;;;;;1.40;1.30;;;27.40;48.00;;;-147.20;100.00;58430.41;5115517;28;20488;-50
2021/07/29 06:34:48;;;;;;;1.30;1.20;;;27.50;47.90;;;-147.20;100.00;58430.41;5113694;28;20047;-50
2021/07/29 06:37:13;;;;;;;1.10;1.00;;;27.50;47.80;;;-147.20;100.00;58430.41;5115382;28;20051;-48
2021/07/29 06:39:39;;;;;;;1.33;1.23;;;27.50;47.70;;;-147.20;100.00;58430.41;5114655;28;20509;-50
2021/07/29 06:42:05;;;;;;;1.30;1.25;;;27.50;47.70;;;-147.20;100.00;58430.41;5115226;28;20047;-48
2021/07/29 06:44:31;;;;;;;1.38;1.20;;;27.50;47.80;;;-147.20;100.00;58430.41;5115747;28;20051;-49
2021/07/29 06:46:56;;;;;;;1.40;1.30;;;27.50;47.90;;;-147.20;100.00;58430.41;5115165;28;20047;-51
2021/07/29 06:49:31;;;;;;;1.13;1.00;;;27.50;47.80;;;-147.20;100.00;58430.41;5115096;28;20151;-48
2021/07/29 06:51:57;;;;;;;1.48;1.38;;;27.50;47.80;;;-147.20;100.00;58430.41;5115459;28;20046;-48
2021/07/29 06:54:23;;;;;;;1.58;1.25;;;27.40;47.70;;;-147.20;100.00;58430.41;5115015;28;20122;-48
2021/07/29 06:56:49;;;;;;;1.27;1.20;;;27.40;47.80;;;-147.20;100.00;58430.41;5114816;28;20047;-48
2021/07/29 06:59:14;;;;;;;1.30;1.20;;;27.40;47.80;;;-147.20;100.00;58430.41;5114955;28;20054;-48
2021/07/29 07:01:40;;;;;;;1.35;1.25;;;27.40;47.80;;;-147.20;100.00;58430.41;5114944;28;20054;-46
2021/07/29 07:04:06;;;;;;;2.05;1.30;;;27.40;47.90;;;-147.20;100.00;58430.41;5114974;28;20101;-49
2021/07/29 07:06:34;;;;;;;1.38;1.27;;;27.50;47.90;;;-147.20;100.00;58430.41;5114976;28;20048;-48
2021/07/29 07:09:00;;;;;;;1.30;1.20;;;27.50;47.80;;;-147.20;100.00;58430.41;5111592;28;20063;-52
2021/07/29 07:11:26;;;;;;;1.30;1.20;;;27.60;47.80;;;-147.20;100.00;58430.41;5114618;28;20067;-49
2021/07/29 07:13:52;;;;;;;1.30;1.20;;;27.60;47.60;;;-147.20;100.00;58430.41;5095263;28;20059;-48
2021/07/29 07:16:17;;;;;;;1.27;1.17;;;27.60;47.50;;;-147.20;100.00;58430.41;5114887;28;20044;-49
2021/07/29 07:18:44;;;;;;;0.93;0.90;;;27.60;47.50;;;-147.20;100.00;58430.41;5114285;28;20051;-49
2021/07/29 07:21:11;;;;;;;1.13;1.08;;;27.70;47.60;;;-147.20;100.00;58430.41;5114619;28;20403;-52
2021/07/29 07:23:38;;;;;;;1.35;1.25;;;27.70;47.50;;;-147.20;100.00;58430.41;5114821;28;20057;-46
2021/07/29 07:26:05;;;;;;;1.15;1.00;;;27.80;47.50;;;-147.20;100.00;58430.41;5114812;28;20054;-47
2021/07/29 07:28:31;;;;;;;1.27;1.17;;;27.70;47.30;;;-147.20;100.00;58430.41;5096135;28;20126;-48
2021/07/29 07:30:57;;;;;;;1.20;1.10;;;27.80;47.20;;;-147.20;100.00;58430.41;5077940;28;20490;-49
2021/07/29 07:33:23;;;;;;;2.65;1.20;;;27.70;47.20;;;-147.20;100.00;58430.41;5096251;28;20052;-46
2021/07/29 07:35:49;;;;;;;1.30;1.20;;;27.70;47.30;;;-147.20;100.00;58430.41;5114435;28;20139;-53
2021/07/29 07:38:15;;;;;;;1.23;1.13;;;27.70;47.50;;;-147.20;100.00;58430.41;5114840;28;20051;-46
2021/07/29 07:40:41;;;;;;;1.20;1.10;;;27.70;47.40;;;-147.20;100.00;58430.41;5114401;28;20544;-48
2021/07/29 07:43:08;;;;;;;1.27;1.17;;;27.70;47.30;;;-147.20;100.00;58430.41;5095941;28;20395;-46
2021/07/29 07:45:35;;;;;;;1.30;1.20;;;27.70;47.20;;;-147.20;100.00;58430.41;5114239;28;20048;-47
2021/07/29 07:48:02;;;;;;;1.30;1.20;;;27.80;47.40;;;-147.20;100.00;58430.41;5112853;28;20054;-50
2021/07/29 07:50:28;;;;;;;1.55;1.38;;;27.80;47.30;;;-147.20;100.00;58430.41;5113450;28;20051;-48
2021/07/29 07:52:53;;;;;;;1.05;0.90;;;27.90;47.20;;;-147.20;100.00;58430.41;5113845;28;20046;-51
2021/07/29 07:55:19;;;;;;;1.33;1.15;;;27.90;47.00;;;-147.20;100.00;58430.41;5114357;28;20108;-47
2021/07/29 07:57:45;;;;;;;1.10;1.10;;;28.00;46.90;;;-147.20;100.00;58430.41;5114302;28;20112;-47
2021/07/29 08:00:12;;;;;;;1.10;1.00;;;28.10;46.90;;;-147.20;100.00;58430.41;5113897;28;20035;-51
2021/07/29 08:02:37;;;;;;;1.15;1.05;;;28.10;46.70;;;-147.20;100.00;58430.41;5113937;28;20054;-48
2021/07/29 08:05:04;;;;;;;1.30;1.20;;;28.20;46.50;;;-147.20;100.00;58430.41;5114272;28;20048;-47
2021/07/29 08:07:29;;;;;;;1.92;0.98;;;28.30;46.40;;;-147.20;100.00;58430.41;5113791;28;20463;-49
2021/07/29 08:09:56;;;;;;;1.50;1.05;;;28.30;46.30;;;-147.20;100.00;58430.41;5109910;28;20076;-47
2021/07/29 08:12:27;;;;;;;0.90;0.90;;;28.30;46.20;;;;;;5193233;27;20536;-46
2021/07/29 08:14:53;;;;;;;1.77;1.10;;;28.30;46.20;;;;;;5172276;27;20071;-53
2021/07/29 08:17:19;;;;;;;1.00;1.00;;;28.40;46.20;;;;;;5171571;27;20077;-51
2021/07/29 08:19:44;;;;;;;1.20;1.10;;;28.40;46.10;;;;;;5171711;27;20047;-52
2021/07/29 08:22:10;;;;;;;1.10;1.00;;;28.50;46.00;;;;;;5152620;27;20058;-49
2021/07/29 08:24:35;;;;;;;1.23;1.13;;;28.40;45.90;;;;;;5171532;27;20083;-52
2021/07/29 08:27:01;;;;;;;1.42;0.98;;;28.40;46.00;;;;;;5171897;27;20545;-52
2021/07/29 08:29:30;;;;;;;1.00;1.00;;;28.40;46.10;;;;;;5152770;27;20073;-53
2021/07/29 08:31:56;;;;;;;1.23;1.13;;;28.30;46.10;;;;;;5171700;27;20378;-49
2021/07/29 08:34:22;;;;;;;1.40;1.30;;;28.20;46.20;;;;;;5171392;27;20065;-50
2021/07/29 08:36:48;;;;;;;2.15;1.13;;;28.30;46.40;;;;;;5171771;27;20051;-47
2021/07/29 08:39:13;;;;;;;1.10;1.02;;;28.20;46.30;;;;;;5171341;27;20057;-49
2021/07/29 08:41:40;;;;;;;1.20;1.10;;;28.20;46.40;;;;;;5171514;27;20083;-51
2021/07/29 08:44:06;;;;;;;1.15;1.08;;;28.10;46.40;;;;;;5171203;27;20072;-52
2021/07/29 08:46:35;;;;;;;1.00;1.00;;;28.10;46.50;;;;;;5171218;27;20534;-51
2021/07/29 08:49:02;;;;;;;0.95;0.95;;;28.10;46.50;;;;;;5171287;27;20118;-52
2021/07/29 08:51:28;;;;;;;2.00;1.13;;;28.20;46.60;;;;;;5171011;27;20050;-52
2021/07/29 08:53:57;;;;;;;1.30;1.20;;;28.20;46.50;;;;;;5171186;27;20095;-50
2021/07/29 08:56:23;;;;;;;1.40;1.30;;;28.20;46.40;;;;;;5170924;27;20107;-50
2021/07/29 08:58:52;;;;;;;1.48;1.38;;;28.20;46.40;;;;;;5170944;27;20125;-49
2021/07/29 09:01:18;;;;;;;1.45;1.15;;;28.20;46.40;;;;;;5170889;27;20060;-52
2021/07/29 09:03:52;;;;;;;1.30;1.20;;;28.20;46.30;;;;;;5151868;27;20055;-46
2021/07/29 09:06:17;;;;;;;1.30;1.20;;;28.20;46.30;;;;;;5170789;27;20054;-49
2021/07/29 09:08:48;;;;;;;1.00;1.00;;;28.20;46.30;;;;;;5170593;27;20072;-53
2021/07/29 09:11:25;;;;;;;0.90;0.90;;;28.20;46.30;;;;;;5150895;27;20043;-51
2021/07/29 09:14:14;;;;;;;1.10;1.05;;;28.20;46.80;;;;;;5151936;27;20046;-52
2021/07/29 09:16:57;;;;;;;0.90;0.90;;;28.20;46.30;;;;;;5170465;27;20497;-51
2021/07/29 09:19:46;;;;;;;1.02;1.02;;;28.20;46.30;;;;;;5170738;27;20077;-50
2021/07/29 09:22:16;;;;;;;1.48;1.38;;;28.20;46.40;;;;;;5166200;27;20104;-46
2021/07/29 09:25:04;;;;;;;1.00;1.00;;;28.20;46.30;;;;;;5157005;27;20095;-49
2021/07/29 09:27:39;;;;;;;1.25;1.13;;;28.20;46.40;;;;;;5156624;27;20110;-51
2021/07/29 09:30:23;;;;;;;1.20;1.10;;;28.10;46.40;;;;;;5137879;27;20102;-52
2021/07/29 09:33:04;;;;;;;1.20;1.10;;;28.10;46.40;;;;;;5156660;27;20050;-48
2021/07/29 09:35:34;;;;;;;;;;;28.10;46.40;;;;;;5157081;27;20081;-49
2021/07/29 09:38:01;;;;;;;1.20;1.10;;;28.20;46.50;;;;;;5156523;27;19922;-50
2021/07/29 09:40:39;;;;;;;1.40;1.13;;;28.20;46.40;;;;;;5135779;27;20047;-47
2021/07/29 09:43:08;;;;;;;1.30;1.20;;;28.20;46.40;;;;;;5157010;27;20069;-48
2021/07/29 09:45:33;;;;;;;1.38;1.13;;;28.20;46.90;;;;;;5156833;27;20046;-48
2021/07/29 09:48:00;;;;;;;1.30;1.17;;;28.20;46.40;;;;;;5156291;27;20383;-47
2021/07/29 09:50:26;;;;;;;1.13;1.02;;;28.20;46.40;;;;;;5156455;27;20486;-52
2021/07/29 09:52:54;;;;;;;1.02;1.02;;;28.20;46.40;;;;;;5156270;27;20054;-52
2021/07/29 09:55:21;;;;;;;1.30;1.20;;;28.20;46.30;;;;;;5156900;27;20114;-52
2021/07/29 09:57:46;;;;;;;1.40;1.30;;;28.20;46.30;;;;;;5137486;27;20058;-47
2021/07/29 10:00:13;;;;;;;1.00;1.00;;;28.30;46.30;;;;;;5156241;27;20059;-47
2021/07/29 10:02:41;;;;;;;1.02;1.02;;;28.30;46.20;;;;;;5156079;27;20455;-47
2021/07/29 10:05:09;;;;;;;1.15;1.05;;;28.30;46.20;;;;;;5137420;27;20053;-50
2021/07/29 10:07:39;;;;;;;0.93;0.93;;;28.30;46.10;;;;;;5156059;27;20058;-54
2021/07/29 10:10:07;;;;;;;1.20;1.10;;;28.30;46.10;;;;;;5156064;27;20470;-52
2021/07/29 10:12:33;;;;;;;1.30;1.20;;;28.40;46.10;;;;;;5156497;27;20064;-49
2021/07/29 10:15:00;;;;;;;0.98;0.98;;;28.40;46.00;;;;;;5155977;27;20495;-48
2021/07/29 10:17:35;;;;;;;1.20;1.10;;;28.40;46.00;;;;;;5155793;27;20054;-51
2021/07/29 10:20:14;;;;;;;1.70;1.45;;;28.40;46.00;;;;;;5156223;27;20445;-45
2021/07/29 10:22:40;;;;;;;1.20;1.17;;;28.40;46.00;;;;;;5137699;27;20131;-47
2021/07/29 10:25:06;;;;;;;1.17;1.05;;;28.40;46.00;;;;;;5155825;27;20146;-53
2021/07/29 10:27:32;;;;;;;1.08;1.02;;;28.40;46.00;;;;;;5155620;27;20117;-53
2021/07/29 10:30:19;;;;;;;2.45;1.20;;;28.40;46.00;;;;;;5156253;27;20141;-45
2021/07/29 10:32:46;;;;;;;1.10;1.05;;;28.30;46.00;;;;;;5155743;27;20043;-49
2021/07/29 10:35:35;;;;;;;1.10;1.00;;;28.30;46.00;;;;;;5154463;27;20047;-49